createdAt,value
2022-08-19T00:09:40.382Z,8.90
2022-08-19T00:19:46.717Z,8.40
2022-08-19T00:29:53.038Z,9.50
2022-08-19T00:39:59.510Z,8.70
2022-08-19T00:50:06.752Z,9.00
2022-08-19T01:00:17.122Z,9.30
2022-08-19T01:10:28.244Z,8.80
2022-08-19T01:20:36.534Z,9.50
2022-08-19T01:30:44.312Z,9.10
2022-08-19T01:40:50.962Z,8.90
2022-08-19T01:50:57.983Z,9.30
2022-08-19T02:01:06.046Z,9.50
2022-08-19T02:11:24.221Z,9.50
2022-08-19T02:21:31.466Z,11.60
2022-08-19T02:31:38.069Z,10.20
2022-08-19T02:41:44.396Z,10.00
2022-08-19T02:51:50.768Z,10.20
2022-08-19T03:01:57.107Z,10.30
2022-08-19T03:12:03.672Z,10.60
2022-08-19T03:22:10.163Z,11.60
2022-08-19T03:32:29.681Z,10.50
2022-08-19T03:42:48.834Z,10.60
2022-08-19T03:52:55.886Z,10.70
2022-08-19T04:03:03.071Z,10.60
2022-08-19T04:13:11.197Z,10.60
2022-08-19T04:23:17.532Z,10.80
2022-08-19T04:33:28.424Z,11.50
2022-08-19T04:43:36.623Z,11.50
2022-08-19T04:53:44.050Z,12.30
2022-08-19T05:03:51.326Z,10.50
2022-08-19T05:13:58.404Z,13.40
2022-08-19T05:24:09.893Z,11.80
2022-08-19T05:34:18.208Z,11.60
2022-08-19T05:44:29.034Z,11.40
2022-08-19T05:54:35.992Z,11.50
2022-08-19T06:04:44.996Z,11.10
2022-08-19T06:15:01.158Z,11.80
2022-08-19T06:25:08.586Z,12.00
2022-08-19T06:35:16.669Z,12.20
2022-08-19T06:45:24.680Z,12.50
2022-08-19T06:55:33.497Z,11.70
2022-08-19T07:05:45.787Z,11.90
2022-08-19T07:15:52.514Z,12.10
2022-08-19T07:25:59.249Z,10.70
2022-08-19T07:36:07.765Z,11.00
2022-08-19T07:46:15.517Z,12.80
2022-08-19T07:56:23.196Z,11.70
2022-08-19T08:06:48.156Z,12.10
2022-08-19T08:16:54.654Z,11.60
2022-08-19T08:27:02.197Z,11.70
2022-08-19T08:37:09.887Z,14.20
2022-08-19T08:47:20.011Z,12.00
2022-08-19T08:57:37.707Z,12.20
2022-08-19T09:08:02.463Z,13.40
2022-08-19T09:18:15.403Z,12.50
2022-08-19T09:28:27.276Z,12.40
2022-08-19T09:38:33.980Z,10.70
2022-08-19T09:48:44.511Z,11.00
2022-08-19T09:58:51.124Z,10.20
2022-08-19T10:08:57.466Z,10.90
2022-08-19T10:19:06.124Z,9.90
2022-08-19T10:29:14.421Z,10.40
2022-08-19T10:39:43.077Z,9.80
2022-08-19T10:50:11.850Z,9.70
2022-08-19T11:00:18.897Z,8.90
2022-08-19T11:10:25.672Z,8.60
2022-08-19T11:20:33.568Z,8.40
2022-08-19T11:30:41.928Z,8.40
2022-08-19T11:40:56.532Z,8.20
2022-08-19T11:51:08.363Z,7.40
2022-08-19T12:02:51.255Z,8.20
2022-08-19T12:12:58.924Z,8.00
2022-08-19T12:23:06.896Z,8.20
2022-08-19T12:33:11.309Z,7.80
2022-08-19T12:43:21.882Z,8.00
2022-08-19T12:53:28.224Z,7.20
2022-08-19T13:03:37.484Z,8.30
2022-08-19T13:13:48.636Z,7.00
2022-08-19T13:23:55.343Z,7.50
2022-08-19T13:34:01.671Z,7.50
2022-08-19T13:44:08.846Z,8.00
2022-08-19T13:54:15.377Z,8.00
2022-08-19T14:04:21.777Z,7.80
2022-08-19T14:14:28.126Z,7.50
2022-08-19T14:24:34.429Z,7.20
2022-08-19T14:34:40.951Z,6.90
2022-08-19T14:44:48.303Z,7.40
2022-08-19T14:54:55.139Z,8.60
2022-08-19T15:05:02.222Z,7.70
2022-08-19T15:15:16.432Z,7.10
2022-08-19T15:25:23.191Z,6.20
2022-08-19T15:35:30.340Z,8.10
2022-08-19T15:45:36.712Z,8.10
2022-08-19T15:55:45.308Z,8.40
2022-08-19T16:06:10.276Z,8.30
2022-08-19T16:16:16.696Z,8.10
2022-08-19T16:26:22.995Z,8.30
2022-08-19T16:36:34.958Z,8.10
2022-08-19T16:46:42.795Z,8.10
2022-08-19T16:56:52.238Z,8.60
2022-08-19T17:06:58.594Z,9.90
2022-08-19T17:17:04.874Z,8.80
2022-08-19T17:27:11.176Z,9.60
2022-08-19T17:37:18.417Z,9.40
2022-08-19T17:47:24.751Z,8.00
2022-08-19T17:57:31.417Z,8.70
2022-08-19T18:07:37.803Z,6.70
2022-08-19T18:17:44.933Z,6.50
